Teniente Alejandro Velasco Astete International Airport
SPZO : now visible

Airfield :











YOU CAN JOIN US ON...

 
LOGIN :

Register | Disclaimer

   EN    FR    IT 

 









Legend :    VFR   Marginal VFR   IFR   Intensive IFR   Very Intensive IFR
Visi :
Ceiling :
>= 8 km
>= 3000ft
5 to 8 km
1000 to 3000 ft
1500m to 5 km
500 to 1000 ft
800 to 1500m
200 to 500 ft
< 800m
< 200 ft
Symbols :   Thunderstorms  Fog  Heavy snow  Heavy precipitations  Wind > 20 kt






- Airport Elevation : 10860 ft
- IATA code : CUZ


SPZO - Teniente Alejandro Velasco Astete International

CURRENT METAR :
  • 260100Z 28006KT 9999 SCT050 BKN100 13/08 Q1029 NOSIG RMK BIRD HAZARD RWY 28 PP000

EXPIRED METARs :
  • 260030Z VRB02KT 9999 FEW050 BKN100 14/08 Q1029 NOSIG RMK BIRD HAZARD RWY 28
  • 260000Z 31003KT 9999 FEW050 BKN100 14/08 Q1028 NOSIG RMK BIRD HAZARD RWY 28 PP000
  • 252330Z 30008KT 9999 SCT050 BKN100 15/08 Q1028 NOSIG RMK BIRD HAZARD RWY 28
  • 252300Z 27004KT 9999 SCT060 BKN100 16/08 Q1027 NOSIG RMK BIRD HAZARD RWY 28 PP000
  • 252230Z 29006KT 9999 SCT060 BKN100 16/07 Q1027 NOSIG RMK BIRD HAZARD RWY 28

TAF TAF SPZO
Valid from the 26 at 00:00 until the 27 at 00:00 UTC


252300Z 2600/2624 00000KT 9999 SCT040 BKN100 TX21/2619Z TN07/2611Z
TEMPO 2602/2604 RA
BECMG 2617/2618 36010KT SCT050 SCT080



MET'MAP, your aeronautical weather chart ! - Copyright ORBIFLY December 2007 - Disclaimer

ORBIFLY MET'MAP TEAM :

Programming & Development : Alexandra Zaïnal
Concept & original design : Baudouin d'Aumeries
Assistance for programming : Marc-Olivier Méhu
Technical & hardware support : Manuel Goepfert

Contact : metmap@orbifly.com




SOURCES & CREDITS :

   NOAA       Earth
Advisory